createdAt,value
2019-05-20T00:00:55.473Z,0.00
2019-05-20T00:01:55.456Z,0.00
2019-05-20T00:02:55.440Z,0.00
2019-05-20T00:03:55.424Z,0.00
2019-05-20T00:04:55.407Z,0.00
2019-05-20T00:05:55.448Z,0.00
2019-05-20T00:06:55.378Z,0.00
2019-05-20T00:07:55.364Z,0.00
2019-05-20T00:08:55.348Z,0.00
2019-05-20T00:09:55.333Z,0.00
2019-05-20T00:10:55.334Z,0.00
2019-05-20T00:11:55.296Z,0.00
2019-05-20T00:12:55.286Z,0.00
2019-05-20T00:13:55.266Z,0.00
2019-05-20T00:14:55.248Z,0.00
2019-05-20T00:15:55.233Z,0.00
2019-05-20T00:16:55.225Z,0.00
2019-05-20T00:17:55.204Z,0.00
2019-05-20T00:18:55.187Z,0.00
2019-05-20T00:19:55.169Z,0.00
2019-05-20T00:20:55.155Z,0.00
2019-05-20T00:21:55.173Z,0.00
2019-05-20T00:22:55.122Z,0.00
2019-05-20T00:23:55.111Z,0.00
2019-05-20T00:24:55.090Z,0.00
2019-05-20T00:25:55.078Z,0.00
2019-05-20T00:26:55.059Z,0.00
2019-05-20T00:27:55.230Z,0.00
2019-05-20T00:28:55.224Z,0.00
2019-05-20T00:29:55.198Z,0.00
2019-05-20T00:30:55.182Z,0.00
2019-05-20T00:31:54.993Z,0.00
2019-05-20T00:32:54.964Z,0.00
2019-05-20T00:33:54.950Z,0.00
2019-05-20T00:34:54.977Z,0.00
2019-05-20T00:35:54.923Z,0.00
2019-05-20T00:36:54.915Z,0.00
2019-05-20T00:37:54.883Z,0.00
2019-05-20T00:38:54.868Z,0.00
2019-05-20T00:39:54.852Z,0.00
2019-05-20T00:40:54.839Z,0.00
2019-05-20T00:41:54.819Z,0.00
2019-05-20T00:42:54.804Z,0.00
2019-05-20T00:43:54.788Z,0.00
2019-05-20T00:44:54.781Z,0.00
2019-05-20T00:45:54.755Z,0.00
2019-05-20T00:46:54.739Z,0.00
2019-05-20T00:47:54.725Z,0.00
2019-05-20T00:48:54.712Z,0.00
2019-05-20T00:49:54.691Z,0.00
2019-05-20T00:50:54.675Z,0.00
2019-05-20T00:51:54.662Z,0.00
2019-05-20T00:52:54.644Z,0.00
2019-05-20T00:53:54.630Z,0.00
2019-05-20T00:54:54.617Z,0.00
2019-05-20T00:55:54.599Z,0.00
2019-05-20T00:56:54.584Z,0.00
2019-05-20T00:57:54.572Z,0.00
2019-05-20T00:58:54.542Z,0.00
2019-05-20T00:59:54.533Z,0.00
2019-05-20T01:00:54.517Z,0.00
2019-05-20T01:01:54.500Z,0.00
2019-05-20T01:02:57.287Z,0.00
2019-05-20T01:03:54.469Z,0.00
2019-05-20T01:04:54.463Z,0.00
2019-05-20T01:05:54.446Z,0.00
2019-05-20T01:06:54.422Z,0.00
2019-05-20T01:07:54.407Z,0.00
2019-05-20T01:08:54.389Z,0.00
2019-05-20T01:09:54.375Z,0.00
2019-05-20T01:10:54.357Z,0.00
2019-05-20T01:11:54.345Z,0.00
2019-05-20T01:12:54.327Z,0.00
2019-05-20T01:13:54.310Z,0.00
2019-05-20T01:14:54.291Z,0.00
2019-05-20T01:15:54.278Z,0.00
2019-05-20T01:16:54.266Z,0.00
2019-05-20T01:17:54.247Z,0.00
2019-05-20T01:18:54.233Z,0.00
2019-05-20T01:19:54.214Z,0.00
2019-05-20T01:20:54.200Z,0.00
2019-05-20T01:21:54.182Z,0.00
2019-05-20T01:22:54.165Z,0.00
2019-05-20T01:23:54.151Z,0.00
2019-05-20T01:24:54.134Z,0.00
2019-05-20T01:25:54.119Z,0.00
2019-05-20T01:26:54.104Z,0.00
2019-05-20T01:27:54.090Z,0.00
2019-05-20T01:28:54.071Z,0.00
2019-05-20T01:29:54.057Z,0.00
2019-05-20T01:30:54.034Z,0.00
2019-05-20T01:31:54.023Z,0.00
2019-05-20T01:32:54.006Z,0.00
2019-05-20T01:33:53.990Z,0.00
2019-05-20T01:34:53.974Z,0.00
2019-05-20T01:35:53.958Z,0.00
2019-05-20T01:36:53.944Z,0.00
2019-05-20T01:37:53.946Z,0.00
2019-05-20T01:38:53.911Z,0.00
2019-05-20T01:39:53.895Z,0.00
2019-05-20T01:40:54.085Z,0.00
2019-05-20T01:41:54.053Z,0.00
2019-05-20T01:42:54.039Z,0.00
2019-05-20T01:43:54.016Z,0.00
2019-05-20T01:44:54.006Z,0.00
2019-05-20T01:45:53.988Z,0.00
2019-05-20T01:46:53.973Z,0.00
2019-05-20T01:47:53.765Z,0.00
2019-05-20T01:48:53.750Z,0.00
2019-05-20T01:49:53.729Z,0.00
2019-05-20T01:50:53.716Z,0.00
2019-05-20T01:51:53.699Z,0.00
2019-05-20T01:52:53.685Z,0.00
2019-05-20T01:53:53.667Z,0.00
2019-05-20T01:54:53.651Z,0.00
2019-05-20T01:55:53.636Z,0.00
2019-05-20T01:56:53.623Z,0.00
2019-05-20T01:57:53.617Z,0.00
2019-05-20T01:58:53.586Z,0.00
2019-05-20T01:59:53.572Z,0.00
2019-05-20T02:00:53.554Z,0.00
2019-05-20T02:01:53.541Z,0.00
2019-05-20T02:02:53.518Z,0.00
2019-05-20T02:03:53.507Z,0.00
2019-05-20T02:04:53.489Z,0.00
2019-05-20T02:05:53.474Z,0.00
2019-05-20T02:06:53.459Z,0.00
2019-05-20T02:07:53.439Z,0.00
2019-05-20T02:08:53.424Z,0.00
2019-05-20T02:09:53.414Z,0.00
2019-05-20T02:10:56.320Z,0.00
2019-05-20T02:11:53.375Z,0.00
2019-05-20T02:12:53.362Z,0.00
2019-05-20T02:13:53.344Z,0.00
2019-05-20T02:14:53.326Z,0.00
2019-05-20T02:15:53.311Z,0.00
2019-05-20T02:16:53.299Z,0.00
2019-05-20T02:17:53.277Z,0.00
2019-05-20T02:18:53.262Z,0.00
2019-05-20T02:19:53.246Z,0.00
2019-05-20T02:20:53.228Z,0.00
2019-05-20T02:21:53.212Z,0.00
2019-05-20T02:22:53.197Z,0.00
2019-05-20T02:23:53.179Z,0.00
2019-05-20T02:24:53.167Z,0.00
2019-05-20T02:25:53.145Z,0.00
2019-05-20T02:26:53.136Z,0.00
2019-05-20T02:27:53.118Z,0.00
2019-05-20T02:28:53.099Z,0.00
2019-05-20T02:29:53.082Z,0.00
2019-05-20T02:30:56.720Z,0.00
2019-05-20T02:31:53.051Z,0.00
2019-05-20T02:32:53.036Z,0.00
2019-05-20T02:33:53.199Z,0.00
2019-05-20T02:34:52.996Z,0.00
2019-05-20T02:35:52.985Z,0.00
2019-05-20T02:36:52.975Z,0.00
2019-05-20T02:37:52.953Z,0.00
2019-05-20T02:38:52.938Z,0.00
2019-05-20T02:39:52.924Z,0.00
2019-05-20T02:40:52.916Z,0.00
2019-05-20T02:41:52.888Z,0.00
2019-05-20T02:42:52.871Z,0.00
2019-05-20T02:43:52.910Z,0.00
2019-05-20T02:44:52.839Z,0.00
2019-05-20T02:45:52.823Z,0.00
2019-05-20T02:46:52.812Z,0.00
2019-05-20T02:47:52.792Z,0.00
2019-05-20T02:48:52.777Z,0.00
2019-05-20T02:49:52.772Z,0.00
2019-05-20T02:50:52.746Z,0.00
2019-05-20T02:51:52.727Z,0.00
2019-05-20T02:52:52.708Z,0.00
2019-05-20T02:53:52.693Z,0.00
2019-05-20T02:54:52.674Z,0.00
2019-05-20T02:55:52.658Z,0.00
2019-05-20T02:56:52.643Z,0.00
2019-05-20T02:57:52.629Z,0.00
2019-05-20T02:58:52.610Z,0.00
2019-05-20T02:59:52.592Z,0.00
2019-05-20T03:00:52.576Z,0.00
2019-05-20T03:01:52.559Z,0.00
2019-05-20T03:02:52.567Z,0.00
2019-05-20T03:04:10.014Z,4.00
2019-05-20T03:04:52.512Z,4.00
2019-05-20T03:05:52.515Z,4.00
2019-05-20T03:06:52.485Z,4.00
2019-05-20T03:07:52.647Z,8.00
2019-05-20T03:08:52.640Z,4.00
2019-05-20T03:09:52.615Z,4.00
2019-05-20T03:10:52.617Z,8.00
2019-05-20T03:11:52.584Z,4.00
2019-05-20T03:12:52.586Z,8.00
2019-05-20T03:13:52.577Z,8.00
2019-05-20T03:14:52.534Z,12.00
2019-05-20T03:15:52.332Z,12.00
2019-05-20T03:16:52.313Z,16.00
2019-05-20T03:17:52.298Z,16.00
2019-05-20T03:18:52.280Z,20.00
2019-05-20T03:19:52.265Z,24.00
2019-05-20T03:20:52.247Z,24.00
2019-05-20T03:21:52.221Z,28.00
2019-05-20T03:22:52.215Z,32.00
2019-05-20T03:23:52.198Z,36.00
2019-05-20T03:24:52.184Z,44.00
2019-05-20T03:25:52.164Z,48.00
2019-05-20T03:26:52.144Z,52.00
2019-05-20T03:27:52.132Z,60.00
2019-05-20T03:28:52.115Z,64.00
2019-05-20T03:29:52.096Z,76.00
2019-05-20T03:30:52.085Z,84.00
2019-05-20T03:31:52.084Z,92.00
2019-05-20T03:32:52.051Z,100.00
2019-05-20T03:33:52.033Z,112.00
2019-05-20T03:34:58.471Z,124.00
2019-05-20T03:35:52.001Z,136.00
2019-05-20T03:36:51.984Z,144.00
2019-05-20T03:37:51.960Z,160.00
2019-05-20T03:38:51.948Z,168.00
2019-05-20T03:39:51.933Z,184.00
2019-05-20T03:40:51.917Z,196.00
2019-05-20T03:41:51.897Z,212.00
2019-05-20T03:42:51.881Z,224.00
2019-05-20T03:43:51.867Z,236.00
2019-05-20T03:44:51.850Z,252.00
2019-05-20T03:45:51.836Z,268.00
2019-05-20T03:46:51.821Z,280.00
2019-05-20T03:47:51.801Z,296.00
2019-05-20T03:48:51.790Z,308.00
2019-05-20T03:49:51.765Z,320.00
2019-05-20T03:50:51.751Z,328.00
2019-05-20T03:51:52.531Z,340.00
2019-05-20T03:52:51.917Z,352.00
2019-05-20T03:53:51.895Z,368.00
2019-05-20T03:54:51.873Z,388.00
2019-05-20T03:55:51.670Z,408.00
2019-05-20T03:56:51.670Z,432.00
2019-05-20T03:57:51.635Z,460.00
2019-05-20T03:58:51.621Z,488.00
2019-05-20T03:59:51.604Z,520.00
2019-05-20T04:00:51.584Z,548.00
2019-05-20T04:01:51.570Z,584.00
2019-05-20T04:02:51.556Z,620.00
2019-05-20T04:03:51.536Z,648.00
2019-05-20T04:05:01.401Z,684.00
2019-05-20T04:05:51.503Z,724.00
2019-05-20T04:06:51.487Z,760.00
2019-05-20T04:07:51.471Z,796.00
2019-05-20T04:08:51.456Z,832.00
2019-05-20T04:09:51.434Z,864.00
2019-05-20T04:10:51.421Z,884.00
2019-05-20T04:11:51.404Z,916.00
2019-05-20T04:12:51.395Z,948.00
2019-05-20T04:13:51.370Z,1000.00
2019-05-20T04:14:51.357Z,1040.00
2019-05-20T04:15:51.339Z,1092.00
2019-05-20T04:16:51.325Z,1156.00
2019-05-20T04:17:51.304Z,1196.00
2019-05-20T04:18:54.031Z,1232.00
2019-05-20T04:19:51.273Z,1320.00
2019-05-20T04:20:51.256Z,1404.00
2019-05-20T04:21:51.241Z,1484.00
2019-05-20T04:22:51.226Z,1404.00
2019-05-20T04:23:51.207Z,1580.00
2019-05-20T04:24:51.192Z,1668.00
2019-05-20T04:25:51.191Z,1756.00
2019-05-20T04:26:51.159Z,1852.00
2019-05-20T04:27:51.140Z,1956.00
2019-05-20T04:28:51.139Z,2020.00
2019-05-20T04:29:51.111Z,2124.00
2019-05-20T04:30:51.091Z,2244.00
2019-05-20T04:31:51.079Z,2232.00
2019-05-20T04:32:51.057Z,2408.00
2019-05-20T04:33:51.052Z,2476.00
2019-05-20T04:34:51.028Z,2572.00
2019-05-20T04:35:51.009Z,2676.00
2019-05-20T04:36:50.992Z,2708.00
2019-05-20T04:37:50.976Z,2780.00
2019-05-20T04:38:50.960Z,2840.00
2019-05-20T04:39:50.944Z,2896.00
2019-05-20T04:40:50.952Z,2924.00
2019-05-20T04:41:50.910Z,2968.00
2019-05-20T04:42:50.895Z,3008.00
2019-05-20T04:43:50.879Z,2980.00
2019-05-20T04:44:50.859Z,3068.00
2019-05-20T04:45:50.847Z,3120.00
2019-05-20T04:46:50.829Z,3152.00
2019-05-20T04:47:50.815Z,3208.00
2019-05-20T04:48:50.799Z,3232.00
2019-05-20T04:49:50.782Z,3324.00
2019-05-20T04:50:50.767Z,3276.00
2019-05-20T04:51:50.750Z,3376.00
2019-05-20T04:52:50.734Z,3440.00
2019-05-20T04:53:50.718Z,3508.00
2019-05-20T04:54:50.706Z,3528.00
2019-05-20T04:55:50.698Z,3640.00
2019-05-20T04:56:50.671Z,3744.00
2019-05-20T04:57:50.655Z,3828.00
2019-05-20T04:58:50.638Z,3908.00
2019-05-20T04:59:50.622Z,3972.00
2019-05-20T05:00:50.632Z,4048.00
2019-05-20T05:01:50.591Z,4104.00
2019-05-20T05:02:50.585Z,4192.00
2019-05-20T05:03:50.567Z,4224.00
2019-05-20T05:04:50.551Z,4356.00
2019-05-20T05:05:50.561Z,4456.00
2019-05-20T05:06:50.510Z,4580.00
2019-05-20T05:07:50.500Z,4696.00
2019-05-20T05:08:50.483Z,4808.00
2019-05-20T05:09:50.466Z,4948.00
2019-05-20T05:10:50.452Z,5100.00
2019-05-20T05:11:50.434Z,5260.00
2019-05-20T05:12:50.418Z,5468.00
2019-05-20T05:13:50.572Z,5716.00
2019-05-20T05:14:50.492Z,6024.00
2019-05-20T05:15:50.378Z,6288.00
2019-05-20T05:16:50.374Z,6596.00
2019-05-20T05:17:50.340Z,6868.00
2019-05-20T05:18:50.364Z,7176.00
2019-05-20T05:19:50.355Z,7464.00
2019-05-20T05:20:50.295Z,7784.00
2019-05-20T05:21:50.278Z,8000.00
2019-05-20T05:22:50.264Z,8172.00
2019-05-20T05:23:58.892Z,8448.00
2019-05-20T05:24:50.236Z,8460.00
2019-05-20T05:25:50.219Z,8876.00
2019-05-20T05:26:50.204Z,9136.00
2019-05-20T05:27:50.191Z,9424.00
2019-05-20T05:28:50.175Z,9772.00
2019-05-20T05:29:50.158Z,10112.00
2019-05-20T05:30:50.146Z,10428.00
2019-05-20T05:31:50.130Z,10844.00
2019-05-20T05:32:50.132Z,11344.00
2019-05-20T05:33:50.103Z,11476.00
2019-05-20T05:34:50.096Z,11376.00
2019-05-20T05:35:53.367Z,11676.00
2019-05-20T05:36:50.059Z,12340.00
2019-05-20T05:37:50.040Z,12240.00
2019-05-20T05:38:50.030Z,11636.00
2019-05-20T05:39:50.015Z,11876.00
2019-05-20T05:40:50.003Z,12136.00
2019-05-20T05:41:49.986Z,12420.00
2019-05-20T05:42:49.976Z,12788.00
2019-05-20T05:43:49.966Z,13100.00
2019-05-20T05:44:49.947Z,12880.00
2019-05-20T05:45:49.977Z,12560.00
2019-05-20T05:46:49.918Z,12148.00
2019-05-20T05:47:49.910Z,11960.00
2019-05-20T05:48:49.892Z,11908.00
2019-05-20T05:49:49.876Z,11876.00
2019-05-20T05:50:49.863Z,11820.00
2019-05-20T05:51:49.851Z,11692.00
2019-05-20T05:52:49.839Z,11516.00
2019-05-20T05:53:49.824Z,11276.00
2019-05-20T05:54:49.809Z,11080.00
2019-05-20T05:55:49.797Z,10956.00
2019-05-20T05:56:49.784Z,10712.00
2019-05-20T05:57:49.767Z,10288.00
2019-05-20T05:58:49.761Z,9816.00
2019-05-20T05:59:49.743Z,9408.00
2019-05-20T06:00:49.730Z,9020.00
2019-05-20T06:01:49.717Z,8720.00
2019-05-20T06:02:49.700Z,8480.00
2019-05-20T06:03:49.692Z,8296.00
2019-05-20T06:04:49.674Z,8128.00
2019-05-20T06:05:49.664Z,8004.00
2019-05-20T06:06:49.646Z,7920.00
2019-05-20T06:07:49.633Z,7884.00
2019-05-20T06:08:49.620Z,7892.00
2019-05-20T06:09:49.606Z,7944.00
2019-05-20T06:10:49.593Z,8036.00
2019-05-20T06:11:49.573Z,8188.00
2019-05-20T06:12:49.566Z,8376.00
2019-05-20T06:13:49.564Z,8516.00
2019-05-20T06:14:49.542Z,8672.00
2019-05-20T06:15:49.526Z,8740.00
2019-05-20T06:16:49.515Z,8784.00
2019-05-20T06:17:49.502Z,8828.00
2019-05-20T06:18:49.488Z,8904.00
2019-05-20T06:19:49.671Z,9004.00
2019-05-20T06:20:49.654Z,9108.00
2019-05-20T06:21:49.639Z,9176.00
2019-05-20T06:22:49.440Z,9192.00
2019-05-20T06:23:49.422Z,9140.00
2019-05-20T06:24:49.405Z,9024.00
2019-05-20T06:25:49.395Z,8888.00
2019-05-20T06:26:49.380Z,8832.00
2019-05-20T06:27:49.381Z,8848.00
2019-05-20T06:28:49.402Z,8924.00
2019-05-20T06:29:49.356Z,9012.00
2019-05-20T06:30:49.343Z,9080.00
2019-05-20T06:31:49.315Z,9144.00
2019-05-20T06:32:49.303Z,9172.00
2019-05-20T06:33:49.289Z,9216.00
2019-05-20T06:34:49.275Z,9196.00
2019-05-20T06:35:49.262Z,9252.00
2019-05-20T06:36:49.252Z,9328.00
2019-05-20T06:37:49.252Z,9340.00
2019-05-20T06:38:49.224Z,9288.00
2019-05-20T06:39:51.237Z,9196.00
2019-05-20T06:40:49.202Z,9084.00
2019-05-20T06:41:49.185Z,8960.00
2019-05-20T06:42:49.173Z,8836.00
2019-05-20T06:43:49.160Z,8708.00
2019-05-20T06:44:52.921Z,8600.00
2019-05-20T06:45:49.134Z,8492.00
2019-05-20T06:46:49.121Z,8380.00
2019-05-20T06:47:49.108Z,8240.00
2019-05-20T06:48:49.108Z,8036.00
2019-05-20T06:49:49.085Z,7796.00
2019-05-20T06:50:49.075Z,7556.00
2019-05-20T06:51:49.058Z,7348.00
2019-05-20T06:52:49.047Z,7148.00
2019-05-20T06:53:49.041Z,6992.00
2019-05-20T06:54:49.024Z,6880.00
2019-05-20T06:55:49.007Z,6788.00
2019-05-20T06:56:49.152Z,6696.00
2019-05-20T06:57:48.982Z,6616.00
2019-05-20T06:58:48.973Z,6560.00
2019-05-20T06:59:48.957Z,6556.00
2019-05-20T07:00:48.946Z,6624.00
2019-05-20T07:01:48.934Z,6812.00
2019-05-20T07:02:52.006Z,7048.00
2019-05-20T07:03:48.907Z,7284.00
2019-05-20T07:04:48.896Z,7556.00
2019-05-20T07:05:48.883Z,7876.00
2019-05-20T07:06:48.879Z,8208.00
2019-05-20T07:07:48.857Z,8552.00
2019-05-20T07:08:48.841Z,8812.00
2019-05-20T07:09:48.851Z,9036.00
2019-05-20T07:10:48.835Z,9228.00
2019-05-20T07:11:52.927Z,9376.00
2019-05-20T07:12:48.796Z,9448.00
2019-05-20T07:13:48.783Z,9528.00
2019-05-20T07:14:48.769Z,9644.00
2019-05-20T07:15:48.757Z,9836.00
2019-05-20T07:16:48.834Z,10044.00
2019-05-20T07:17:48.730Z,10272.00
2019-05-20T07:18:48.721Z,10508.00
2019-05-20T07:19:48.726Z,10776.00
2019-05-20T07:20:48.697Z,11032.00
2019-05-20T07:21:48.684Z,11252.00
2019-05-20T07:22:55.650Z,11440.00
2019-05-20T07:23:52.166Z,11620.00
2019-05-20T07:24:48.647Z,11732.00
2019-05-20T07:25:48.634Z,11788.00
2019-05-20T07:26:48.622Z,11808.00
2019-05-20T07:27:48.614Z,11812.00
2019-05-20T07:28:48.604Z,11836.00
2019-05-20T07:29:48.584Z,11912.00
2019-05-20T07:30:48.575Z,11972.00
2019-05-20T07:31:48.571Z,12068.00
2019-05-20T07:32:48.552Z,12232.00
2019-05-20T07:33:48.540Z,12524.00
2019-05-20T07:34:48.530Z,12864.00
2019-05-20T07:35:48.517Z,13248.00
2019-05-20T07:37:02.023Z,13660.00
2019-05-20T07:37:48.495Z,14104.00
2019-05-20T07:38:48.482Z,14420.00
2019-05-20T07:39:48.474Z,14476.00
2019-05-20T07:40:48.469Z,14424.00
2019-05-20T07:41:48.448Z,14472.00
2019-05-20T07:42:48.439Z,14652.00
2019-05-20T07:43:48.426Z,14800.00
2019-05-20T07:44:48.415Z,14940.00
2019-05-20T07:45:48.411Z,14956.00
2019-05-20T07:46:48.394Z,14852.00
2019-05-20T07:47:48.383Z,14680.00
2019-05-20T07:48:48.377Z,14408.00
2019-05-20T07:49:48.360Z,13980.00
2019-05-20T07:50:48.350Z,13584.00
2019-05-20T07:51:48.349Z,13176.00
2019-05-20T07:52:48.327Z,12616.00
2019-05-20T07:53:48.326Z,12044.00
2019-05-20T07:54:48.308Z,11700.00
2019-05-20T07:55:48.316Z,11620.00
2019-05-20T07:56:48.289Z,11676.00
2019-05-20T07:57:48.278Z,11724.00
2019-05-20T07:58:48.265Z,11924.00
2019-05-20T07:59:48.256Z,12336.00
2019-05-20T08:00:48.245Z,12960.00
2019-05-20T08:01:48.252Z,13704.00
2019-05-20T08:02:48.234Z,14564.00
2019-05-20T08:03:48.215Z,15568.00
2019-05-20T08:04:48.218Z,16532.00
2019-05-20T08:05:48.201Z,17664.00
2019-05-20T08:06:48.221Z,18496.00
2019-05-20T08:07:52.407Z,19200.00
2019-05-20T08:08:48.164Z,19680.00
2019-05-20T08:09:48.156Z,20096.00
2019-05-20T08:10:48.145Z,20576.00
2019-05-20T08:11:48.214Z,21088.00
2019-05-20T08:12:48.124Z,21664.00
2019-05-20T08:13:48.109Z,22336.00
2019-05-20T08:14:48.100Z,23008.00
2019-05-20T08:15:48.093Z,23680.00
2019-05-20T08:16:48.083Z,24224.00
2019-05-20T08:17:48.069Z,24672.00
2019-05-20T08:18:48.097Z,24928.00
2019-05-20T08:19:48.054Z,25184.00
2019-05-20T08:20:48.042Z,25344.00
2019-05-20T08:21:48.032Z,24832.00
2019-05-20T08:22:48.026Z,24544.00
2019-05-20T08:23:50.113Z,24192.00
2019-05-20T08:24:48.001Z,22976.00
2019-05-20T08:25:48.012Z,22272.00
2019-05-20T08:26:48.017Z,22016.00
2019-05-20T08:27:47.976Z,22112.00
2019-05-20T08:28:47.966Z,25696.00
2019-05-20T08:29:47.962Z,21536.00
2019-05-20T08:30:47.951Z,20736.00
2019-05-20T08:31:47.942Z,20576.00
2019-05-20T08:32:47.931Z,20832.00
2019-05-20T08:33:47.921Z,21120.00
2019-05-20T08:34:48.094Z,21312.00
2019-05-20T08:35:47.911Z,21312.00
2019-05-20T08:36:47.896Z,21152.00
2019-05-20T08:37:47.885Z,20928.00
2019-05-20T08:38:47.877Z,20480.00
2019-05-20T08:39:47.865Z,19936.00
2019-05-20T08:40:48.879Z,19264.00
2019-05-20T08:41:47.851Z,18496.00
2019-05-20T08:42:47.845Z,17824.00
2019-05-20T08:43:47.831Z,17028.00
2019-05-20T08:44:47.822Z,16712.00
2019-05-20T08:45:47.824Z,16864.00
2019-05-20T08:46:47.813Z,16924.00
2019-05-20T08:47:47.878Z,17344.00
2019-05-20T08:48:47.797Z,17728.00
2019-05-20T08:49:47.818Z,18080.00
2019-05-20T08:50:47.772Z,18240.00
2019-05-20T08:51:47.774Z,18912.00
2019-05-20T08:52:47.751Z,19456.00
2019-05-20T08:53:47.742Z,19488.00
2019-05-20T08:54:47.733Z,19520.00
2019-05-20T08:55:47.741Z,18560.00
2019-05-20T08:56:49.373Z,17760.00
2019-05-20T08:57:47.718Z,18016.00
2019-05-20T08:58:47.700Z,19072.00
2019-05-20T08:59:47.691Z,19808.00
2019-05-20T09:00:47.679Z,20224.00
2019-05-20T09:01:47.670Z,20000.00
2019-05-20T09:02:47.676Z,19552.00
2019-05-20T09:03:47.651Z,18528.00
2019-05-20T09:04:47.648Z,17568.00
2019-05-20T09:05:47.640Z,16324.00
2019-05-20T09:06:47.631Z,15216.00
2019-05-20T09:08:01.499Z,14840.00
2019-05-20T09:08:47.638Z,14492.00
2019-05-20T09:09:47.596Z,14892.00
2019-05-20T09:10:47.601Z,15788.00
2019-05-20T09:11:48.174Z,16252.00
2019-05-20T09:12:47.569Z,16396.00
2019-05-20T09:13:47.570Z,17376.00
2019-05-20T09:14:47.554Z,17760.00
2019-05-20T09:15:47.543Z,17376.00
2019-05-20T09:16:47.532Z,15916.00
2019-05-20T09:17:47.527Z,15284.00
2019-05-20T09:18:47.519Z,14952.00
2019-05-20T09:19:47.604Z,14860.00
2019-05-20T09:20:47.491Z,13112.00
2019-05-20T09:21:47.486Z,12436.00
2019-05-20T09:22:47.493Z,13260.00
2019-05-20T09:23:47.470Z,13552.00
2019-05-20T09:24:47.649Z,14028.00
2019-05-20T09:25:47.470Z,14340.00
2019-05-20T09:26:47.579Z,13912.00
2019-05-20T09:27:47.430Z,14620.00
2019-05-20T09:28:47.417Z,14844.00
2019-05-20T09:29:47.408Z,14204.00
2019-05-20T09:30:47.407Z,12816.00
2019-05-20T09:31:47.391Z,12376.00
2019-05-20T09:32:47.382Z,13892.00
2019-05-20T09:33:47.373Z,16268.00
2019-05-20T09:34:47.354Z,16640.00
2019-05-20T09:35:47.354Z,15212.00
2019-05-20T09:36:47.341Z,13916.00
2019-05-20T09:37:47.344Z,12920.00
2019-05-20T09:38:47.324Z,11384.00
2019-05-20T09:39:47.314Z,10428.00
2019-05-20T09:40:47.305Z,11024.00
2019-05-20T09:41:47.293Z,12148.00
2019-05-20T09:42:47.285Z,12028.00
2019-05-20T09:43:47.276Z,11496.00
2019-05-20T09:44:47.262Z,11348.00
2019-05-20T09:45:47.253Z,10896.00
2019-05-20T09:46:47.246Z,10228.00
2019-05-20T09:47:47.240Z,9640.00
2019-05-20T09:48:47.226Z,10196.00
2019-05-20T09:49:47.241Z,10948.00
2019-05-20T09:50:47.205Z,11896.00
2019-05-20T09:51:47.195Z,13024.00
2019-05-20T09:52:47.186Z,13052.00
2019-05-20T09:53:47.175Z,11060.00
2019-05-20T09:54:47.224Z,11244.00
2019-05-20T09:55:47.163Z,11528.00
2019-05-20T09:56:47.146Z,12084.00
2019-05-20T09:57:47.161Z,12308.00
2019-05-20T09:58:47.124Z,12468.00
2019-05-20T09:59:47.115Z,13196.00
2019-05-20T10:00:47.106Z,14184.00
2019-05-20T10:01:47.106Z,15692.00
2019-05-20T10:02:47.149Z,17060.00
2019-05-20T10:03:47.077Z,16988.00
2019-05-20T10:04:47.066Z,16432.00
2019-05-20T10:05:47.056Z,15904.00
2019-05-20T10:06:47.047Z,15668.00
2019-05-20T10:07:47.037Z,15044.00
2019-05-20T10:08:47.029Z,14756.00
2019-05-20T10:09:47.020Z,14436.00
2019-05-20T10:10:47.010Z,13248.00
2019-05-20T10:11:47.006Z,11984.00
2019-05-20T10:12:47.286Z,11732.00
2019-05-20T10:13:46.984Z,11784.00
2019-05-20T10:14:46.975Z,10928.00
2019-05-20T10:15:46.963Z,9872.00
2019-05-20T10:16:46.952Z,9780.00
2019-05-20T10:17:46.942Z,10040.00
2019-05-20T10:18:46.934Z,10040.00
2019-05-20T10:19:46.924Z,10168.00
2019-05-20T10:20:46.939Z,10064.00
2019-05-20T10:21:46.932Z,10236.00
2019-05-20T10:22:46.894Z,10784.00
2019-05-20T10:23:46.888Z,11516.00
2019-05-20T10:24:46.878Z,11944.00
2019-05-20T10:25:46.864Z,11852.00
2019-05-20T10:26:46.856Z,12032.00
2019-05-20T10:27:46.845Z,12196.00
2019-05-20T10:28:47.665Z,12924.00
2019-05-20T10:29:46.826Z,13816.00
2019-05-20T10:30:46.811Z,14964.00
2019-05-20T10:31:46.806Z,15384.00
2019-05-20T10:32:46.801Z,14932.00
2019-05-20T10:33:46.786Z,13992.00
2019-05-20T10:34:46.777Z,13004.00
2019-05-20T10:35:46.771Z,12132.00
2019-05-20T10:36:46.755Z,11924.00
2019-05-20T10:37:46.746Z,12156.00
2019-05-20T10:38:57.917Z,12428.00
2019-05-20T10:39:46.726Z,12448.00
2019-05-20T10:40:46.715Z,12392.00
2019-05-20T10:41:46.713Z,12164.00
2019-05-20T10:42:46.696Z,12808.00
2019-05-20T10:43:46.690Z,13104.00
2019-05-20T10:44:46.674Z,14588.00
2019-05-20T10:45:46.663Z,15928.00
2019-05-20T10:46:46.656Z,16968.00
2019-05-20T10:47:46.644Z,19040.00
2019-05-20T10:48:46.636Z,20864.00
2019-05-20T10:49:46.626Z,23744.00
2019-05-20T10:50:46.617Z,25568.00
2019-05-20T10:51:46.602Z,25312.00
2019-05-20T10:52:46.610Z,24800.00
2019-05-20T10:53:46.605Z,24992.00
2019-05-20T10:54:46.575Z,23616.00
2019-05-20T10:55:46.568Z,22688.00
2019-05-20T10:56:46.557Z,20640.00
2019-05-20T10:57:46.545Z,18080.00
2019-05-20T10:58:46.544Z,15224.00
2019-05-20T10:59:46.526Z,13320.00
2019-05-20T11:01:01.600Z,12916.00
2019-05-20T11:01:46.509Z,13224.00
2019-05-20T11:02:46.501Z,13608.00
2019-05-20T11:03:46.486Z,14320.00
2019-05-20T11:04:46.504Z,15596.00
2019-05-20T11:05:46.660Z,16036.00
2019-05-20T11:06:46.648Z,15908.00
2019-05-20T11:07:46.459Z,15660.00
2019-05-20T11:08:46.445Z,15312.00
2019-05-20T11:09:46.436Z,14912.00
2019-05-20T11:10:46.426Z,14464.00
2019-05-20T11:11:46.417Z,14212.00
2019-05-20T11:12:46.409Z,13920.00
2019-05-20T11:13:46.396Z,14140.00
2019-05-20T11:14:46.448Z,14428.00
2019-05-20T11:15:46.379Z,13964.00
2019-05-20T11:16:46.380Z,13376.00
2019-05-20T11:17:46.360Z,13152.00
2019-05-20T11:18:46.355Z,13588.00
2019-05-20T11:19:46.341Z,14300.00
2019-05-20T11:20:46.328Z,14496.00
2019-05-20T11:21:46.319Z,14232.00
2019-05-20T11:22:46.311Z,14024.00
2019-05-20T11:23:46.301Z,13296.00
2019-05-20T11:24:46.364Z,11732.00
2019-05-20T11:25:46.282Z,11084.00
2019-05-20T11:26:46.308Z,12100.00
2019-05-20T11:27:46.271Z,13100.00
2019-05-20T11:28:46.251Z,13424.00
2019-05-20T11:29:46.252Z,13672.00
2019-05-20T11:30:46.230Z,13788.00
2019-05-20T11:31:46.221Z,13952.00
2019-05-20T11:32:46.213Z,13980.00
2019-05-20T11:33:46.202Z,13920.00
2019-05-20T11:34:46.316Z,13840.00
2019-05-20T11:35:46.179Z,13756.00
2019-05-20T11:36:46.169Z,13404.00
2019-05-20T11:37:46.160Z,12824.00
2019-05-20T11:38:46.151Z,12532.00
2019-05-20T11:39:46.141Z,12292.00
2019-05-20T11:40:46.131Z,12008.00
2019-05-20T11:41:53.516Z,12108.00
2019-05-20T11:42:46.113Z,13004.00
2019-05-20T11:43:46.104Z,14128.00
2019-05-20T11:44:46.099Z,14780.00
2019-05-20T11:45:46.083Z,15036.00
2019-05-20T11:46:46.143Z,15148.00
2019-05-20T11:47:46.088Z,15276.00
2019-05-20T11:48:46.053Z,15376.00
2019-05-20T11:49:46.055Z,15572.00
2019-05-20T11:50:46.039Z,15816.00
2019-05-20T11:51:46.028Z,15804.00
2019-05-20T11:52:46.027Z,16024.00
2019-05-20T11:53:46.008Z,16468.00
2019-05-20T11:54:46.002Z,16736.00
2019-05-20T11:55:45.989Z,17052.00
2019-05-20T11:56:45.980Z,17568.00
2019-05-20T11:57:45.969Z,17824.00
2019-05-20T11:58:45.966Z,17920.00
2019-05-20T11:59:45.945Z,18080.00
2019-05-20T12:00:45.945Z,18304.00
2019-05-20T12:01:45.933Z,18272.00
2019-05-20T12:02:45.925Z,17920.00
2019-05-20T12:03:45.919Z,16700.00
2019-05-20T12:04:45.906Z,15344.00
2019-05-20T12:05:45.903Z,14184.00
2019-05-20T12:06:45.888Z,14220.00
2019-05-20T12:07:45.879Z,15052.00
2019-05-20T12:08:45.872Z,14652.00
2019-05-20T12:09:49.460Z,13696.00
2019-05-20T12:10:45.851Z,13068.00
2019-05-20T12:11:45.843Z,13424.00
2019-05-20T12:12:46.278Z,13656.00
2019-05-20T12:13:45.826Z,13372.00
2019-05-20T12:14:45.815Z,13412.00
2019-05-20T12:15:45.805Z,13960.00